Time;durP1;ratioP1;P1;durP2;ratioP2;P2;SDS_P1;SDS_P2;PMS_P1;PMS_P2;Temp;Humidity;BMP_temperature;BMP_pressure;BME280_temperature;BME280_humidity;BME280_pressure;Samples;Min_cycle;Max_cycle;Signal;HPM_P1;HPM_P2
2022/06/28 00:01:58;;;;;;;5.80;5.40;;;;;;;;;;1851299;76;26319;-44
2022/06/28 00:04:25;;;;;;;5.75;5.35;;;;;;;;;;1870565;76;26877;-47
2022/06/28 00:06:53;;;;;;;5.78;5.35;;;;;;;;;;1854465;76;26268;-46
2022/06/28 00:09:21;;;;;;;5.78;5.28;;;;;;;;;;1861319;76;26348;-47
2022/06/28 00:11:49;;;;;;;5.97;5.47;;;;;;;;;;1855043;76;26287;-50
2022/06/28 00:17:03;;;;;;;6.22;5.72;;;;;;;;;;1858080;76;26327;-46
2022/06/28 00:19:30;;;;;;;6.50;6.00;;;;;;;;;;1860248;76;27474;-45
2022/06/28 00:21:58;;;;;;;6.40;5.90;;;;;;;;;;1869471;76;26332;-50
2022/06/28 00:24:25;;;;;;;6.83;6.22;;;;;;;;;;1866605;76;26249;-51
2022/06/28 00:26:53;;;;;;;6.78;6.17;;;;;;;;;;1869334;76;26307;-51
2022/06/28 00:29:20;;;;;;;7.10;6.50;;;;;;;;;;1849298;76;26708;-47
2022/06/28 00:31:47;;;;;;;6.53;5.90;;;;;;;;;;1858713;76;26269;-48
2022/06/28 00:34:15;;;;;;;5.95;5.45;;;;;;;;;;1866026;76;26306;-48
2022/06/28 00:36:42;;;;;;;6.15;5.70;;;;;;;;;;1838821;76;26252;-46
2022/06/28 00:39:09;;;;;;;6.40;5.78;;;;;;;;;;1880026;76;26337;-45
2022/06/28 00:41:37;;;;;;;6.10;5.60;;;;;;;;;;1862422;75;26743;-45
2022/06/28 00:44:05;;;;;;;6.62;5.65;;;;;;;;;;1859517;76;26261;-50
2022/06/28 00:46:35;;;;;;;6.20;5.70;;;;;;;;;;1853519;76;26350;-45
2022/06/28 00:49:03;;;;;;;5.80;5.35;;;;;;;;;;1861828;76;26253;-47
2022/06/28 00:51:31;;;;;;;5.62;5.22;;;;;;;;;;1834609;76;26356;-49
2022/06/28 00:53:59;;;;;;;6.53;5.92;;;;;;;;;;1860061;76;26205;-48
2022/06/28 00:56:26;;;;;;;6.00;5.50;;;;;;;;;;1879801;76;26737;-47
2022/06/28 00:58:55;;;;;;;5.78;5.33;;;;;;;;;;1903115;75;26259;-51
2022/06/28 01:01:26;;;;;;;5.90;5.50;;;;;;;;;;1868212;75;26284;-45
2022/06/28 01:03:54;;;;;;;6.20;5.58;;;;;;;;;;1878740;75;26253;-45
2022/06/28 01:06:21;;;;;;;6.97;5.65;;;;;;;;;;1905416;75;26242;-46
2022/06/28 01:08:49;;;;;;;5.92;5.53;;;;;;;;;;1880489;76;26263;-47
2022/06/28 01:11:20;;;;;;;6.97;6.25;;;;;;;;;;1874788;75;26720;-46
2022/06/28 01:13:51;;;;;;;6.28;5.67;;;;;;;;;;1880912;76;26601;-46
2022/06/28 01:16:20;;;;;;;6.35;5.80;;;;;;;;;;1876457;75;26202;-45
2022/06/28 01:18:47;;;;;;;5.92;5.53;;;;;;;;;;1881084;74;26297;-47
2022/06/28 01:21:16;;;;;;;6.20;5.70;;;;;;;;;;1880153;75;26253;-46
2022/06/28 01:23:44;;;;;;;6.40;5.90;;;;;;;;;;1878500;75;26283;-45
2022/06/28 01:26:13;;;;;;;6.67;6.08;;;;;;;;;;1880739;75;26647;-46
2022/06/28 01:28:41;;;;;;;7.20;6.10;;;;;;;;;;1869562;75;26256;-45
2022/06/28 01:31:09;;;;;;;6.90;6.20;;;;;;;;;;1876673;75;26263;-47
2022/06/28 01:33:37;;;;;;;6.90;6.25;;;;;;;;;;1878777;76;26420;-45
2022/06/28 01:36:05;;;;;;;7.75;6.35;;;;;;;;;;1865920;75;26251;-45
2022/06/28 01:38:33;;;;;;;6.67;6.03;;;;;;;;;;1880850;75;26645;-48
2022/06/28 01:41:01;;;;;;;6.75;6.25;;;;;;;;;;1870425;75;26253;-45
2022/06/28 01:43:30;;;;;;;6.70;6.10;;;;;;;;;;1870426;75;26883;-47
2022/06/28 01:45:58;;;;;;;6.17;5.75;;;;;;;;;;1852690;75;26305;-45
2022/06/28 01:48:26;;;;;;;6.78;6.28;;;;;;;;;;1874548;75;26258;-46
2022/06/28 01:50:53;;;;;;;6.87;6.35;;;;;;;;;;1880508;75;26296;-49
2022/06/28 01:53:20;;;;;;;6.55;6.05;;;;;;;;;;1880858;76;26714;-48
2022/06/28 01:55:48;;;;;;;7.20;6.22;;;;;;;;;;1865205;76;26312;-46
2022/06/28 01:58:16;;;;;;;6.70;6.20;;;;;;;;;;1866438;76;26295;-48
2022/06/28 02:00:44;;;;;;;7.00;6.25;;;;;;;;;;1878018;76;26241;-45
2022/06/28 02:03:11;;;;;;;6.80;6.20;;;;;;;;;;1848219;76;26633;-48
2022/06/28 02:05:39;;;;;;;7.00;6.50;;;;;;;;;;1861683;75;26230;-47
2022/06/28 02:08:08;;;;;;;7.00;6.40;;;;;;;;;;1880585;75;26732;-47
2022/06/28 02:10:35;;;;;;;6.97;6.40;;;;;;;;;;1885365;75;26321;-45
2022/06/28 02:13:03;;;;;;;7.33;6.42;;;;;;;;;;1874767;75;26237;-48
2022/06/28 02:15:30;;;;;;;7.25;6.75;;;;;;;;;;1879066;75;26256;-47
2022/06/28 02:17:59;;;;;;;7.05;6.45;;;;;;;;;;1879086;76;26257;-45
2022/06/28 02:20:26;;;;;;;6.90;6.40;;;;;;;;;;1863345;76;26627;-45
2022/06/28 02:22:53;;;;;;;7.33;6.72;;;;;;;;;;1874004;75;26273;-51
2022/06/28 02:25:21;;;;;;;6.80;6.30;;;;;;;;;;1871557;75;26244;-50
2022/06/28 02:27:48;;;;;;;7.37;6.35;;;;;;;;;;1871256;75;26700;-54
2022/06/28 02:30:15;;;;;;;7.40;6.70;;;;;;;;;;1872098;75;26292;-48
2022/06/28 02:32:43;;;;;;;7.50;6.95;;;;;;;;;;1880829;76;26339;-46
2022/06/28 02:40:41;;;;;;;6.90;6.20;;;;;;;;;;1880378;75;26799;-45
2022/06/28 02:43:08;;;;;;;7.58;6.75;;;;;;;;;;1900309;75;26241;-50
2022/06/28 02:45:36;;;;;;;7.40;6.67;;;;;;;;;;1879750;76;26218;-45
2022/06/28 02:48:04;;;;;;;7.00;6.50;;;;;;;;;;1882176;75;26305;-45
2022/06/28 02:50:32;;;;;;;6.33;5.92;;;;;;;;;;1877266;75;26288;-45
2022/06/28 02:52:59;;;;;;;6.33;5.90;;;;;;;;;;1884241;74;26271;-46
2022/06/28 02:55:27;;;;;;;6.35;5.85;;;;;;;;;;1869174;75;26682;-47
2022/06/28 02:57:55;;;;;;;6.10;5.45;;;;;;;;;;1872679;74;26254;-47
2022/06/28 03:00:22;;;;;;;6.37;5.70;;;;;;;;;;1871060;74;26678;-45
2022/06/28 03:02:50;;;;;;;6.15;5.75;;;;;;;;;;1881262;74;26278;-46
2022/06/28 03:05:19;;;;;;;5.92;5.53;;;;;;;;;;1880510;74;26253;-46
2022/06/28 03:07:46;;;;;;;5.92;5.42;;;;;;;;;;1879511;74;26315;-46
2022/06/28 03:10:14;;;;;;;6.20;5.65;;;;;;;;;;1885681;74;25542;-45
2022/06/28 03:12:41;;;;;;;5.83;5.42;;;;;;;;;;1889800;76;26258;-46
2022/06/28 03:15:09;;;;;;;6.22;5.70;;;;;;;;;;1885043;74;26930;-45
2022/06/28 03:17:36;;;;;;;8.25;6.10;;;;;;;;;;1889665;76;26175;-46
2022/06/28 03:20:04;;;;;;;6.62;6.12;;;;;;;;;;1908810;74;26246;-48
2022/06/28 03:22:31;;;;;;;7.35;6.58;;;;;;;;;;1878429;76;26257;-48
2022/06/28 03:24:59;;;;;;;7.35;6.47;;;;;;;;;;1889403;74;26319;-45
2022/06/28 03:27:26;;;;;;;7.22;6.65;;;;;;;;;;1885462;76;26302;-45
2022/06/28 03:29:53;;;;;;;7.12;6.60;;;;;;;;;;1889576;76;26238;-47
2022/06/28 03:32:20;;;;;;;7.08;6.53;;;;;;;;;;1887477;76;26308;-45
2022/06/28 03:34:48;;;;;;;7.75;6.70;;;;;;;;;;1889585;74;26281;-50
2022/06/28 03:37:15;;;;;;;7.15;6.65;;;;;;;;;;1871973;76;27382;-45
2022/06/28 03:39:42;;;;;;;7.37;6.78;;;;;;;;;;1888814;74;26510;-45
2022/06/28 03:42:10;;;;;;;7.42;6.85;;;;;;;;;;1917494;74;26370;-47
2022/06/28 03:44:37;;;;;;;7.22;6.70;;;;;;;;;;1883062;74;26830;-49
2022/06/28 03:47:04;;;;;;;7.00;6.30;;;;;;;;;;1878437;75;26251;-45
2022/06/28 03:49:32;;;;;;;7.08;6.47;;;;;;;;;;1874256;76;26194;-46
2022/06/28 03:51:59;;;;;;;6.78;6.28;;;;;;;;;;1889608;76;26313;-45
2022/06/28 03:54:27;;;;;;;7.03;6.50;;;;;;;;;;1897473;74;26301;-49
2022/06/28 03:56:54;;;;;;;7.15;6.55;;;;;;;;;;1887386;75;26277;-48
2022/06/28 03:59:21;;;;;;;7.80;7.20;;;;;;;;;;1877611;76;26312;-48
2022/06/28 04:01:48;;;;;;;7.00;6.50;;;;;;;;;;1885317;75;26256;-45
2022/06/28 04:04:16;;;;;;;7.53;6.90;;;;;;;;;;1880824;75;26760;-45
2022/06/28 04:06:43;;;;;;;8.35;7.22;;;;;;;;;;1873434;75;26721;-50
2022/06/28 04:09:11;;;;;;;7.60;6.90;;;;;;;;;;1878098;76;26266;-45
2022/06/28 04:11:38;;;;;;;7.92;7.12;;;;;;;;;;1880453;75;26257;-47
2022/06/28 04:14:05;;;;;;;7.90;7.20;;;;;;;;;;1880354;75;26260;-46
2022/06/28 04:16:33;;;;;;;7.95;7.15;;;;;;;;;;1880657;75;26261;-45
2022/06/28 04:19:00;;;;;;;7.58;6.97;;;;;;;;;;1879320;75;26307;-47
2022/06/28 04:21:27;;;;;;;7.30;6.70;;;;;;;;;;1876193;75;26282;-45
2022/06/28 04:23:54;;;;;;;8.65;7.28;;;;;;;;;;1883496;75;26598;-48
2022/06/28 04:26:22;;;;;;;7.60;6.78;;;;;;;;;;1882980;75;26820;-48
2022/06/28 04:28:49;;;;;;;7.70;7.00;;;;;;;;;;1883654;75;26762;-49
2022/06/28 04:31:17;;;;;;;7.30;6.70;;;;;;;;;;1885491;75;26280;-45
2022/06/28 04:33:44;;;;;;;7.40;6.70;;;;;;;;;;1878122;75;27392;-46
2022/06/28 04:36:12;;;;;;;7.87;6.42;;;;;;;;;;1890528;75;26234;-49
2022/06/28 04:38:39;;;;;;;7.20;6.60;;;;;;;;;;1872662;75;26240;-45
2022/06/28 04:41:06;;;;;;;7.20;6.60;;;;;;;;;;1871787;75;26253;-45
2022/06/28 04:43:34;;;;;;;7.55;6.80;;;;;;;;;;1878164;76;26315;-45
2022/06/28 04:46:01;;;;;;;7.03;6.50;;;;;;;;;;1881284;75;26289;-51
2022/06/28 04:48:28;;;;;;;6.40;5.90;;;;;;;;;;1874876;76;26272;-48
2022/06/28 04:50:55;;;;;;;6.83;6.30;;;;;;;;;;1871476;75;26256;-49
2022/06/28 04:53:23;;;;;;;6.50;6.00;;;;;;;;;;1876000;76;26316;-47
2022/06/28 04:55:50;;;;;;;6.80;6.12;;;;;;;;;;1873274;75;26309;-55
2022/06/28 04:58:17;;;;;;;6.80;6.20;;;;;;;;;;1872570;75;26436;-51
2022/06/28 05:00:44;;;;;;;6.55;5.95;;;;;;;;;;1870445;75;26292;-46
2022/06/28 05:03:12;;;;;;;6.83;6.22;;;;;;;;;;1879616;75;27402;-51
2022/06/28 05:05:39;;;;;;;6.15;5.75;;;;;;;;;;1878656;76;26245;-48
2022/06/28 05:08:07;;;;;;;6.30;5.75;;;;;;;;;;1878195;75;26328;-45
2022/06/28 05:10:34;;;;;;;6.10;5.60;;;;;;;;;;1879951;76;26630;-49
2022/06/28 05:13:01;;;;;;;6.62;6.15;;;;;;;;;;1878755;75;27336;-45
2022/06/28 05:15:29;;;;;;;6.22;5.72;;;;;;;;;;1879213;75;26264;-53
2022/06/28 05:17:56;;;;;;;6.30;5.70;;;;;;;;;;1878549;75;26269;-51
2022/06/28 05:20:23;;;;;;;6.30;5.70;;;;;;;;;;1882212;75;26270;-52
2022/06/28 05:22:50;;;;;;;5.95;5.55;;;;;;;;;;1875095;75;26303;-50
2022/06/28 05:25:18;;;;;;;6.50;6.00;;;;;;;;;;1871090;75;26335;-45
2022/06/28 05:27:45;;;;;;;6.78;5.80;;;;;;;;;;1876777;75;26284;-47
2022/06/28 05:30:13;;;;;;;5.87;5.47;;;;;;;;;;1876974;75;26250;-47
2022/06/28 05:32:40;;;;;;;6.03;5.53;;;;;;;;;;1883411;75;26659;-47
2022/06/28 05:35:08;;;;;;;5.90;5.40;;;;;;;;;;1880114;75;26261;-45
2022/06/28 05:37:35;;;;;;;5.95;5.45;;;;;;;;;;1883157;75;26752;-48
2022/06/28 05:40:03;;;;;;;8.70;5.50;;;;;;;;;;1875033;76;26323;-57
2022/06/28 05:42:30;;;;;;;5.70;5.30;;;;;;;;;;1875137;75;26335;-46
2022/06/28 05:44:57;;;;;;;5.85;5.37;;;;;;;;;;1878822;75;26276;-49
2022/06/28 05:47:25;;;;;;;5.70;5.20;;;;;;;;;;1874582;75;26242;-45
2022/06/28 05:49:52;;;;;;;6.17;5.15;;;;;;;;;;1877683;76;26313;-49
2022/06/28 05:52:19;;;;;;;5.62;5.20;;;;;;;;;;1882480;75;26697;-53
2022/06/28 05:54:47;;;;;;;7.62;5.53;;;;;;;;;;1879344;76;26767;-51
2022/06/28 05:57:14;;;;;;;5.05;4.75;;;;;;;;;;1883587;74;26677;-46
2022/06/28 05:59:41;;;;;;;5.25;4.95;;;;;;;;;;1889782;74;26740;-47
2022/06/28 06:02:09;;;;;;;5.25;4.85;;;;;;;;;;1903530;74;26250;-47
2022/06/28 06:04:36;;;;;;;5.03;4.72;;;;;;;;;;1872452;74;26193;-47
2022/06/28 06:07:03;;;;;;;5.40;5.00;;;;;;;;;;1889603;76;26262;-47
2022/06/28 06:09:31;;;;;;;5.10;4.80;;;;;;;;;;1890556;74;26830;-47
2022/06/28 06:11:58;;;;;;;6.33;4.70;;;;;;;;;;1888098;74;26256;-47
2022/06/28 06:14:25;;;;;;;5.12;4.83;;;;;;;;;;1886747;74;26300;-51
2022/06/28 06:16:53;;;;;;;5.15;4.85;;;;;;;;;;1890941;74;26360;-48
2022/06/28 06:19:20;;;;;;;4.87;4.58;;;;;;;;;;1887756;74;26248;-50
2022/06/28 06:21:47;;;;;;;4.72;4.42;;;;;;;;;;1877855;74;26280;-52
2022/06/28 06:24:14;;;;;;;4.92;4.62;;;;;;;;;;1893138;74;26306;-48
2022/06/28 06:26:43;;;;;;;4.75;4.45;;;;;;;;;;1900022;74;26245;-48
2022/06/28 06:29:10;;;;;;;4.58;4.37;;;;;;;;;;1889301;76;26340;-47
2022/06/28 06:31:37;;;;;;;4.67;4.47;;;;;;;;;;1882738;76;26292;-47
2022/06/28 06:34:06;;;;;;;5.25;4.85;;;;;;;;;;1885850;74;26806;-48
2022/06/28 06:36:35;;;;;;;4.80;4.50;;;;;;;;;;1873047;75;26275;-48
2022/06/28 06:39:02;;;;;;;4.60;4.30;;;;;;;;;;1889247;74;26255;-48
2022/06/28 06:41:29;;;;;;;4.78;4.37;;;;;;;;;;1888667;74;26257;-46
2022/06/28 06:43:57;;;;;;;4.70;4.40;;;;;;;;;;1884638;74;26357;-48
2022/06/28 06:46:24;;;;;;;4.97;4.58;;;;;;;;;;1890437;74;26613;-46
2022/06/28 06:48:51;;;;;;;4.80;4.50;;;;;;;;;;1883878;74;26704;-46
2022/06/28 06:51:19;;;;;;;5.00;4.70;;;;;;;;;;1886294;76;26284;-46
2022/06/28 06:53:46;;;;;;;4.95;4.47;;;;;;;;;;1886558;74;26245;-46
2022/06/28 06:56:13;;;;;;;6.12;4.28;;;;;;;;;;1885815;74;26308;-49
2022/06/28 06:58:40;;;;;;;4.67;4.35;;;;;;;;;;1883868;76;26331;-50
2022/06/28 07:01:08;;;;;;;4.03;3.83;;;;;;;;;;1883162;74;26750;-46
2022/06/28 07:03:35;;;;;;;5.22;4.20;;;;;;;;;;1885864;74;26256;-48
2022/06/28 07:06:03;;;;;;;4.55;4.25;;;;;;;;;;1887209;76;26246;-48
2022/06/28 07:08:30;;;;;;;4.35;3.85;;;;;;;;;;1881641;76;26834;-49
2022/06/28 07:10:57;;;;;;;4.53;4.10;;;;;;;;;;1864181;76;26720;-47
2022/06/28 07:13:25;;;;;;;4.08;3.87;;;;;;;;;;1867604;76;26308;-47
2022/06/28 07:15:53;;;;;;;4.10;3.90;;;;;;;;;;1867597;74;26259;-47
2022/06/28 07:18:21;;;;;;;4.12;3.90;;;;;;;;;;1866611;75;26346;-50
2022/06/28 07:20:51;;;;;;;3.87;3.67;;;;;;;;;;1866182;75;26304;-52
2022/06/28 07:23:17;;;;;;;3.90;3.70;;;;;;;;;;1866767;74;26379;-57
2022/06/28 07:25:45;;;;;;;3.92;3.72;;;;;;;;;;1868382;74;26288;-46
2022/06/28 07:28:12;;;;;;;3.83;3.62;;;;;;;;;;1866370;75;26300;-52
2022/06/28 07:30:39;;;;;;;4.15;3.95;;;;;;;;;;1865285;74;26256;-48
2022/06/28 07:33:07;;;;;;;3.95;3.75;;;;;;;;;;1867210;74;26712;-51
2022/06/28 07:35:34;;;;;;;4.20;4.00;;;;;;;;;;1866470;74;26361;-50
2022/06/28 07:38:02;;;;;;;4.15;3.95;;;;;;;;;;1867443;76;26249;-46
2022/06/28 07:40:29;;;;;;;3.80;3.60;;;;;;;;;;1868581;74;27130;-46
2022/06/28 07:42:56;;;;;;;3.58;3.40;;;;;;;;;;1869322;74;26268;-49
2022/06/28 07:45:23;;;;;;;4.05;3.85;;;;;;;;;;1867816;76;26302;-47
2022/06/28 07:47:51;;;;;;;4.03;3.60;;;;;;;;;;1867609;75;26304;-44
2022/06/28 07:53:05;;;;;;;3.50;3.40;;;;;;;;;;1864575;74;26328;-49
2022/06/28 07:55:32;;;;;;;3.50;3.40;;;;;;;;;;1866001;75;26882;-47
2022/06/28 07:58:00;;;;;;;3.50;3.40;;;;;;;;;;1868775;74;26195;-47
2022/06/28 08:00:27;;;;;;;3.92;3.65;;;;;;;;;;1867570;74;26619;-46
2022/06/28 08:02:55;;;;;;;3.80;3.60;;;;;;;;;;1866393;75;26317;-48
2022/06/28 08:05:22;;;;;;;3.55;3.45;;;;;;;;;;1865416;76;26298;-47
2022/06/28 08:07:50;;;;;;;3.50;3.40;;;;;;;;;;1869360;74;26328;-53
2022/06/28 08:10:17;;;;;;;3.47;3.37;;;;;;;;;;1867768;76;26305;-48
2022/06/28 08:12:44;;;;;;;4.40;4.08;;;;;;;;;;1868004;74;26901;-48
2022/06/28 08:15:12;;;;;;;3.70;3.50;;;;;;;;;;1868447;74;26256;-48
2022/06/28 08:17:40;;;;;;;3.60;3.50;;;;;;;;;;1865530;75;26183;-44
2022/06/28 08:20:08;;;;;;;3.80;3.50;;;;;;;;;;1867352;74;26301;-48
2022/06/28 08:22:35;;;;;;;3.58;3.47;;;;;;;;;;1867873;76;25822;-45
2022/06/28 08:25:03;;;;;;;3.72;3.42;;;;;;;;;;1868427;74;26342;-50
2022/06/28 08:27:30;;;;;;;3.85;3.33;;;;;;;;;;1870179;74;26750;-50
2022/06/28 08:29:58;;;;;;;3.90;3.80;;;;;;;;;;1864792;74;26256;-52
2022/06/28 08:32:25;;;;;;;6.10;3.20;;;;;;;;;;1870507;74;26260;-52
2022/06/28 08:34:52;;;;;;;3.55;3.35;;;;;;;;;;1870683;74;26708;-50
2022/06/28 08:37:20;;;;;;;4.30;3.30;;;;;;;;;;1870255;76;26846;-46
2022/06/28 08:39:47;;;;;;;4.35;3.40;;;;;;;;;;1864142;74;26252;-48
2022/06/28 08:42:16;;;;;;;3.58;3.47;;;;;;;;;;1865160;76;26279;-48
2022/06/28 08:44:43;;;;;;;3.70;3.40;;;;;;;;;;1865681;74;26287;-51
2022/06/28 08:47:12;;;;;;;3.62;3.50;;;;;;;;;;1869410;74;26336;-50
2022/06/28 08:49:41;;;;;;;3.30;3.20;;;;;;;;;;1870852;76;26276;-47
2022/06/28 08:52:11;;;;;;;3.75;3.55;;;;;;;;;;1863956;74;26307;-48
2022/06/28 08:54:39;;;;;;;3.50;3.20;;;;;;;;;;1864686;74;26323;-49
2022/06/28 08:57:06;;;;;;;3.30;3.20;;;;;;;;;;1863391;74;26713;-48
2022/06/28 08:59:35;;;;;;;3.30;3.20;;;;;;;;;;1865944;74;26370;-51
2022/06/28 09:02:06;;;;;;;3.90;3.70;;;;;;;;;;1867080;74;26284;-51
2022/06/28 09:04:33;;;;;;;3.70;3.50;;;;;;;;;;1867255;74;26814;-45
2022/06/28 09:07:01;;;;;;;3.70;3.50;;;;;;;;;;1864864;74;26319;-50
2022/06/28 09:09:28;;;;;;;3.25;3.15;;;;;;;;;;1861937;74;26309;-47
2022/06/28 09:11:56;;;;;;;3.60;3.50;;;;;;;;;;1864203;74;26350;-47
2022/06/28 09:14:27;;;;;;;3.30;3.20;;;;;;;;;;1867700;74;26877;-47
2022/06/28 09:16:55;;;;;;;3.50;3.40;;;;;;;;;;1869710;76;26776;-47
2022/06/28 09:19:38;;;;;;;3.52;3.42;;;;;;;;;;1865387;75;26314;-48
2022/06/28 09:22:06;;;;;;;3.60;3.50;;;;;;;;;;1867798;74;26335;-57
2022/06/28 09:24:33;;;;;;;3.70;3.50;;;;;;;;;;1867689;76;26367;-52
2022/06/28 09:27:02;;;;;;;3.47;3.37;;;;;;;;;;1864966;74;26833;-53
2022/06/28 09:29:30;;;;;;;3.62;3.50;;;;;;;;;;1865572;75;26724;-47
2022/06/28 09:31:57;;;;;;;3.67;3.52;;;;;;;;;;1863935;76;26355;-48
2022/06/28 09:34:24;;;;;;;3.50;3.40;;;;;;;;;;1865168;74;26817;-45
2022/06/28 09:36:55;;;;;;;3.80;3.60;;;;;;;;;;1866144;74;26798;-47
2022/06/28 09:39:22;;;;;;;3.42;3.33;;;;;;;;;;1864539;76;26476;-46
2022/06/28 09:41:55;;;;;;;3.50;3.40;;;;;;;;;;1868320;74;26334;-49
2022/06/28 09:44:27;;;;;;;3.70;3.60;;;;;;;;;;1866133;74;26806;-45
2022/06/28 09:46:57;;;;;;;3.65;3.35;;;;;;;;;;1868647;76;26327;-47
2022/06/28 09:49:30;;;;;;;3.58;3.47;;;;;;;;;;1870471;74;26367;-49
2022/06/28 09:51:59;;;;;;;3.70;3.50;;;;;;;;;;1864047;74;26208;-44
2022/06/28 09:54:28;;;;;;;3.75;3.55;;;;;;;;;;1866148;74;26845;-45
2022/06/28 09:56:56;;;;;;;3.50;3.30;;;;;;;;;;1872706;74;26779;-48
2022/06/28 09:59:24;;;;;;;3.70;3.40;;;;;;;;;;1862132;74;26331;-46
2022/06/28 10:01:53;;;;;;;3.65;3.55;;;;;;;;;;1869673;74;26244;-50
2022/06/28 10:04:21;;;;;;;3.77;3.47;;;;;;;;;;1867769;74;26296;-48
2022/06/28 10:06:48;;;;;;;3.65;3.47;;;;;;;;;;1869078;74;26296;-50
2022/06/28 10:09:17;;;;;;;5.25;3.70;;;;;;;;;;1867586;74;26356;-49
2022/06/28 10:17:18;;;;;;;3.72;3.50;;;;;;;;;;1864001;76;26390;-48
2022/06/28 10:19:45;;;;;;;3.65;3.55;;;;;;;;;;1884859;76;26239;-47
2022/06/28 10:22:12;;;;;;;3.72;3.52;;;;;;;;;;1887419;76;27406;-50
2022/06/28 10:24:56;;;;;;;6.85;3.90;;;;;;;;;;1887740;74;26227;-47
2022/06/28 10:27:24;;;;;;;3.80;3.55;;;;;;;;;;1875654;74;26779;-47
2022/06/28 10:29:56;;;;;;;3.87;3.58;;;;;;;;;;1888928;74;26256;-50
2022/06/28 10:32:41;;;;;;;4.05;3.60;;;;;;;;;;1874955;76;26775;-50
2022/06/28 10:35:08;;;;;;;5.58;3.60;;;;;;;;;;1881174;74;26398;-50
2022/06/28 10:37:36;;;;;;;5.08;3.85;;;;;;;;;;1875015;74;26322;-47
2022/06/28 10:40:13;;;;;;;5.08;3.90;;;;;;;;;;1866159;74;26778;-49
2022/06/28 10:42:50;;;;;;;4.00;3.58;;;;;;;;;;1780280;79;26377;-47
2022/06/28 10:45:19;;;;;;;4.12;3.62;;;;;;;;;;1880900;74;26844;-59
2022/06/28 10:47:48;;;;;;;5.42;4.00;;;;;;;;;;1876877;74;26624;-52
2022/06/28 10:50:16;;;;;;;4.20;3.90;;;;;;;;;;1855758;74;26322;-51
2022/06/28 10:52:45;;;;;;;4.40;4.00;;;;;;;;;;1913521;74;26293;-50
2022/06/28 10:55:13;;;;;;;6.28;3.85;;;;;;;;;;1883734;76;27176;-52
2022/06/28 10:57:41;;;;;;;4.08;3.77;;;;;;;;;;1877727;74;26289;-50
2022/06/28 11:00:10;;;;;;;3.72;3.52;;;;;;;;;;1867143;75;26330;-47
2022/06/28 11:02:45;;;;;;;5.83;3.92;;;;;;;;;;1873332;75;26283;-49
2022/06/28 11:05:12;;;;;;;4.20;3.90;;;;;;;;;;1871372;76;26300;-50
2022/06/28 11:07:41;;;;;;;4.65;3.85;;;;;;;;;;1862439;75;26750;-45
2022/06/28 11:10:10;;;;;;;4.83;3.92;;;;;;;;;;1871726;75;26272;-47
2022/06/28 11:12:39;;;;;;;3.98;3.77;;;;;;;;;;1853161;75;26825;-50
2022/06/28 11:15:13;;;;;;;4.25;3.95;;;;;;;;;;1868577;75;26272;-46
2022/06/28 11:17:41;;;;;;;3.95;3.67;;;;;;;;;;1861732;75;26819;-50
2022/06/28 11:20:10;;;;;;;5.25;4.10;;;;;;;;;;1853971;75;26343;-47
2022/06/28 11:22:39;;;;;;;3.90;3.70;;;;;;;;;;1881992;76;26217;-52
2022/06/28 11:25:08;;;;;;;4.10;3.80;;;;;;;;;;1873824;75;26331;-50
2022/06/28 11:27:36;;;;;;;4.08;3.87;;;;;;;;;;1860854;75;26249;-49
2022/06/28 11:30:05;;;;;;;4.17;3.77;;;;;;;;;;1880738;75;26798;-47
2022/06/28 11:32:46;;;;;;;4.10;3.90;;;;;;;;;;1852853;76;26320;-46
2022/06/28 11:35:14;;;;;;;4.12;3.92;;;;;;;;;;1871636;75;26281;-50
2022/06/28 11:37:52;;;;;;;4.50;4.20;;;;;;;;;;1856119;76;26705;-46
2022/06/28 11:40:24;;;;;;;4.10;3.90;;;;;;;;;;1875650;75;26362;-46
2022/06/28 11:43:02;;;;;;;4.10;3.90;;;;;;;;;;1861013;75;26331;-47
2022/06/28 11:45:30;;;;;;;4.40;4.20;;;;;;;;;;1879434;75;26815;-46
2022/06/28 11:47:59;;;;;;;3.87;3.70;;;;;;;;;;1880638;76;26863;-58
2022/06/28 11:50:26;;;;;;;3.85;3.65;;;;;;;;;;1872312;75;26783;-47
2022/06/28 11:52:54;;;;;;;4.08;3.87;;;;;;;;;;1878898;75;26708;-48
2022/06/28 11:55:39;;;;;;;4.12;3.92;;;;;;;;;;1864446;75;26269;-47
2022/06/28 11:58:10;;;;;;;4.25;3.92;;;;;;;;;;1873637;75;26743;-47
2022/06/28 12:00:38;;;;;;;4.03;3.72;;;;;;;;;;1879424;75;26522;-52
2022/06/28 12:03:05;;;;;;;4.10;3.90;;;;;;;;;;1879148;75;26215;-49
2022/06/28 12:05:34;;;;;;;3.87;3.77;;;;;;;;;;1877787;76;27066;-45
2022/06/28 12:08:02;;;;;;;4.03;3.80;;;;;;;;;;1854808;75;27181;-49
2022/06/28 12:10:31;;;;;;;4.03;3.83;;;;;;;;;;1864138;75;26208;-46
2022/06/28 12:12:59;;;;;;;3.70;3.60;;;;;;;;;;1883088;75;26267;-45
2022/06/28 12:15:28;;;;;;;3.60;3.50;;;;;;;;;;1893936;75;26798;-54
2022/06/28 12:17:57;;;;;;;4.03;3.83;;;;;;;;;;1865151;75;26798;-46
2022/06/28 12:20:24;;;;;;;4.00;3.80;;;;;;;;;;1879374;75;26239;-49
2022/06/28 12:23:02;;;;;;;4.15;3.95;;;;;;;;;;1866428;75;27304;-49
2022/06/28 12:25:29;;;;;;;3.80;3.70;;;;;;;;;;1873101;75;26861;-47
2022/06/28 12:27:57;;;;;;;4.08;3.87;;;;;;;;;;1872372;76;26277;-47
2022/06/28 12:30:24;;;;;;;3.95;3.75;;;;;;;;;;1880484;75;26649;-49
2022/06/28 12:32:52;;;;;;;4.10;3.90;;;;;;;;;;1863343;75;26260;-47
2022/06/28 12:35:21;;;;;;;3.85;3.70;;;;;;;;;;1865039;75;26293;-49
2022/06/28 12:37:49;;;;;;;4.15;3.95;;;;;;;;;;1857554;75;26280;-46
2022/06/28 12:40:17;;;;;;;4.20;4.00;;;;;;;;;;1872125;75;26664;-51
2022/06/28 12:42:45;;;;;;;4.00;3.80;;;;;;;;;;1898308;75;26276;-52
2022/06/28 12:45:12;;;;;;;4.10;3.90;;;;;;;;;;1898760;75;26258;-47
2022/06/28 12:47:41;;;;;;;4.03;3.83;;;;;;;;;;1897597;75;26665;-46
2022/06/28 12:50:10;;;;;;;3.72;3.52;;;;;;;;;;1880263;75;26728;-46
2022/06/28 12:52:38;;;;;;;4.05;3.92;;;;;;;;;;1880410;76;26199;-45
2022/06/28 12:55:06;;;;;;;4.00;3.80;;;;;;;;;;1877240;76;26267;-49
2022/06/28 12:57:33;;;;;;;3.90;3.70;;;;;;;;;;1873979;75;26799;-52
2022/06/28 13:00:01;;;;;;;3.92;3.72;;;;;;;;;;1878422;76;26263;-49
2022/06/28 13:02:28;;;;;;;4.17;3.98;;;;;;;;;;1886046;76;26206;-46
2022/06/28 13:04:55;;;;;;;4.15;3.95;;;;;;;;;;1917439;74;26729;-48
2022/06/28 13:07:23;;;;;;;3.70;3.60;;;;;;;;;;1888408;74;26205;-45
2022/06/28 13:09:52;;;;;;;4.10;3.90;;;;;;;;;;1895196;74;26285;-49
2022/06/28 13:12:19;;;;;;;4.30;4.10;;;;;;;;;;1893099;74;26282;-47
2022/06/28 13:14:47;;;;;;;4.00;3.80;;;;;;;;;;1876231;75;26260;-45
2022/06/28 13:17:14;;;;;;;4.12;3.92;;;;;;;;;;1879661;76;26260;-46
2022/06/28 13:19:41;;;;;;;3.98;3.85;;;;;;;;;;1903716;74;26274;-47
2022/06/28 13:22:08;;;;;;;4.00;3.90;;;;;;;;;;1914526;74;26319;-46
2022/06/28 13:24:38;;;;;;;4.00;3.90;;;;;;;;;;1885040;76;26256;-45
2022/06/28 13:27:05;;;;;;;4.20;4.00;;;;;;;;;;1889676;76;26255;-47
2022/06/28 13:29:32;;;;;;;4.30;4.10;;;;;;;;;;1886998;76;26319;-47
2022/06/28 13:31:59;;;;;;;4.40;4.20;;;;;;;;;;1890517;74;26274;-49
2022/06/28 13:34:27;;;;;;;4.30;4.10;;;;;;;;;;1876132;74;26276;-53
2022/06/28 13:36:54;;;;;;;4.53;4.33;;;;;;;;;;1875652;76;26329;-50
2022/06/28 13:39:21;;;;;;;4.10;3.90;;;;;;;;;;1901999;74;26270;-48
2022/06/28 13:41:49;;;;;;;4.15;3.95;;;;;;;;;;1857994;74;26763;-48
2022/06/28 13:44:17;;;;;;;4.40;4.20;;;;;;;;;;1874844;75;26367;-47
2022/06/28 13:46:45;;;;;;;4.22;4.03;;;;;;;;;;1890301;74;26340;-52
2022/06/28 13:49:14;;;;;;;4.25;4.05;;;;;;;;;;1887644;74;26308;-45
2022/06/28 13:51:42;;;;;;;4.40;4.20;;;;;;;;;;1873290;74;26244;-46
2022/06/28 13:54:09;;;;;;;4.35;4.15;;;;;;;;;;1875479;74;26425;-48
2022/06/28 13:56:36;;;;;;;4.60;4.40;;;;;;;;;;1908552;74;26262;-46
2022/06/28 13:59:03;;;;;;;4.60;4.40;;;;;;;;;;1881461;75;26812;-45
2022/06/28 14:01:31;;;;;;;4.60;4.40;;;;;;;;;;1871844;76;26877;-45
2022/06/28 14:03:58;;;;;;;4.85;4.62;;;;;;;;;;1855644;76;26339;-49
2022/06/28 14:06:26;;;;;;;4.40;4.20;;;;;;;;;;1864552;75;26277;-48
2022/06/28 14:08:53;;;;;;;4.30;4.10;;;;;;;;;;1872657;76;26906;-46
2022/06/28 14:11:21;;;;;;;4.90;4.70;;;;;;;;;;1868267;76;26316;-46
2022/06/28 14:13:49;;;;;;;4.42;4.22;;;;;;;;;;1874927;75;26340;-48
2022/06/28 14:16:16;;;;;;;4.30;4.10;;;;;;;;;;1874930;76;26327;-50
2022/06/28 14:18:43;;;;;;;4.42;4.22;;;;;;;;;;1879361;75;26278;-46
2022/06/28 14:21:10;;;;;;;4.50;4.30;;;;;;;;;;1895619;75;26265;-45
2022/06/28 14:23:38;;;;;;;4.60;4.40;;;;;;;;;;1846568;75;26325;-47
2022/06/28 14:26:05;;;;;;;4.58;4.37;;;;;;;;;;1857196;75;26263;-52
2022/06/28 14:28:33;;;;;;;4.80;4.60;;;;;;;;;;1880827;75;27197;-48
2022/06/28 14:31:00;;;;;;;4.28;4.08;;;;;;;;;;1855399;76;26641;-45
2022/06/28 14:33:27;;;;;;;4.10;4.00;;;;;;;;;;1881240;75;26265;-45
2022/06/28 14:35:55;;;;;;;4.70;4.50;;;;;;;;;;1874793;75;26807;-47
2022/06/28 14:38:23;;;;;;;4.70;4.50;;;;;;;;;;1872385;75;26261;-51
2022/06/28 14:40:51;;;;;;;4.60;4.40;;;;;;;;;;1875184;76;26720;-48
2022/06/28 14:43:19;;;;;;;4.47;4.28;;;;;;;;;;1867584;76;26330;-46
2022/06/28 14:45:47;;;;;;;4.22;4.03;;;;;;;;;;1874755;75;26362;-49
2022/06/28 14:48:14;;;;;;;4.58;4.37;;;;;;;;;;1867391;75;26548;-49
2022/06/28 14:50:41;;;;;;;4.53;4.33;;;;;;;;;;1874918;75;26245;-49
2022/06/28 14:53:11;;;;;;;4.60;4.40;;;;;;;;;;1871675;75;26249;-45
2022/06/28 14:55:40;;;;;;;4.60;4.40;;;;;;;;;;1863068;75;26311;-47
2022/06/28 14:58:08;;;;;;;4.65;4.45;;;;;;;;;;1892125;75;26356;-46
2022/06/28 15:00:37;;;;;;;4.80;4.60;;;;;;;;;;1862119;75;26335;-50
2022/06/28 15:03:05;;;;;;;4.95;4.72;;;;;;;;;;1855392;75;26281;-46
2022/06/28 15:05:32;;;;;;;4.92;4.65;;;;;;;;;;1865203;76;26781;-46